This is the latest recevied weather packets stored in our database for station/object EB2GLU-13. If no packets are shown the sender has not sent any weather packets the latest 10 day(s).
| Time | Temp. | Humidity | Pressure | Rain* | Wind** | Luminosity | Snow |
|---|---|---|---|---|---|---|---|
| 1777725733 | 16.67° C | 80% | 1015.8 hPa | 0.51 mm | - | - | - |
| 1777724983 | 16.11° C | 86% | 1015.4 hPa | 0.51 mm | - | - | - |
| 1777724233 | 16.67° C | 83% | 1015.9 hPa | 0.51 mm | - | - | - |
| 1777723483 | 18.33° C | 79% | 1016.1 hPa | 0 mm | - | - | - |
| 1777722733 | 18.89° C | 76% | 1016.5 hPa | 0 mm | - | - | - |
| 1777721983 | 21.11° C | 66% | 1016.1 hPa | 0 mm | - | - | - |
| 1777721233 | 21.67° C | 65% | 1016.7 hPa | 0 mm | - | - | - |
| 1777720483 | 21.11° C | 66% | 1016.5 hPa | 0 mm | - | - | - |
| 1777719733 | 21.11° C | 66% | 1016.1 hPa | 0 mm | - | - | - |
| 1777718983 | 21.11° C | 65% | 1015.9 hPa | 0 mm | - | - | - |
| 1777718233 | 20.56° C | 66% | 1016 hPa | 0 mm | - | - | - |
| 1777717482 | 20.56° C | 65% | 1016.2 hPa | 0 mm | - | - | - |
| 1777716732 | 20.56° C | 67% | 1016.5 hPa | 0 mm | - | - | - |
| 1777715982 | 20.56° C | 66% | 1016.3 hPa | 0 mm | - | - | - |
| 1777715232 | 20.56° C | 65% | 1016.5 hPa | 0 mm | - | - | - |
| 1777713732 | 20° C | 67% | 1017 hPa | 0 mm | - | - | - |
| 1777712982 | 20° C | 68% | 1016.5 hPa | 0 mm | - | - | - |
| 1777712232 | 19.44° C | 69% | 1016.7 hPa | 0 mm | - | - | - |
| 1777711482 | 19.44° C | 70% | 1016.4 hPa | 0 mm | - | - | - |
| 1777710732 | 19.44° C | 69% | 1016.6 hPa | 0 mm | - | - | - |
| 1777709982 | 19.44° C | 70% | 1016.4 hPa | 0 mm | - | - | - |
| 1777709232 | 19.44° C | 69% | 1016.2 hPa | 0 mm | - | - | - |
| 1777708482 | 19.44° C | 69% | 1016.3 hPa | 0 mm | - | - | - |
| 1777707732 | 19.44° C | 69% | 1016.1 hPa | 0 mm | - | - | - |
| 1777706982 | 19.44° C | 69% | 1016.5 hPa | 0 mm | - | - | - |
* Rain latest hour (hover to see other rain measurements)
** Current wind speed in m/s (hover to see current wind gust speed)